Time;durP1;ratioP1;P1;durP2;ratioP2;P2;SDS_P1;SDS_P2;PMS_P1;PMS_P2;Temp;Humidity;BMP_temperature;BMP_pressure;BME280_temperature;BME280_humidity;BME280_pressure;Samples;Min_cycle;Max_cycle;Signal;HPM_P1;HPM_P2
2023/01/13 00:02:05;;;;;;;33.40;5.88;;;8.50;99.90;;;;;;5112471;28;20050;-79
2023/01/13 00:04:51;;;;;;;30.67;5.32;;;8.40;99.90;;;;;;5113304;28;20106;-79
2023/01/13 00:07:39;;;;;;;33.20;6.22;;;8.40;99.90;;;;;;5093273;28;20483;-80
2023/01/13 00:10:25;;;;;;;36.15;9.98;;;8.30;99.90;;;;;;5094768;28;20091;-81
2023/01/13 00:13:11;;;;;;;30.25;6.55;;;8.20;99.90;;;;;;5119649;28;20291;-83
2023/01/13 00:15:57;;;;;;;29.77;5.97;;;8.20;99.90;;;;;;5095417;28;20161;-80
2023/01/13 00:18:44;;;;;;;42.08;6.10;;;8.20;99.90;;;;;;5112417;28;20067;-80
2023/01/13 00:21:31;;;;;;;35.42;6.93;;;8.10;99.90;;;;;;5112092;28;20607;-79
2023/01/13 00:24:17;;;;;;;27.40;6.55;;;8.10;99.90;;;;;;5096733;28;20043;-83
2023/01/13 00:27:03;;;;;;;47.33;9.13;;;8.10;99.90;;;;;;5111673;28;20479;-80
2023/01/13 00:29:49;;;;;;;31.63;6.90;;;8.00;99.90;;;;;;5092510;28;20043;-82
2023/01/13 00:32:35;;;;;;;30.02;6.65;;;8.00;99.90;;;;;;5112273;28;20056;-79
2023/01/13 00:35:22;;;;;;;41.90;7.45;;;8.00;99.90;;;;;;5092580;28;20040;-79
2023/01/13 00:38:08;;;;;;;39.50;7.60;;;8.00;99.90;;;;;;5111228;28;20054;-81
2023/01/13 00:41:06;;;;;;;41.35;5.40;;;8.00;99.90;;;;;;5119684;28;20046;-80
2023/01/13 00:43:52;;;;;;;32.28;6.68;;;7.90;99.90;;;;;;5112277;28;20055;-81
2023/01/13 00:46:38;;;;;;;37.50;6.88;;;8.00;99.90;;;;;;5098056;28;20047;-84
2023/01/13 00:49:24;;;;;;;50.53;9.18;;;8.00;99.90;;;;;;5111542;28;20043;-80
2023/01/13 00:52:11;;;;;;;31.52;7.25;;;8.00;99.90;;;;;;5111033;28;20051;-83
2023/01/13 00:54:57;;;;;;;33.40;6.93;;;8.00;99.90;;;;;;5112703;28;20044;-80
2023/01/13 00:57:43;;;;;;;41.70;6.97;;;8.00;99.90;;;;;;5110822;28;20062;-80
2023/01/13 01:00:33;;;;;;;36.10;7.85;;;7.90;99.90;;;;;;5092942;28;20054;-79
2023/01/13 01:03:19;;;;;;;31.25;6.53;;;8.00;99.90;;;;;;5099478;28;20054;-82
2023/01/13 01:06:10;;;;;;;32.88;7.15;;;8.10;99.90;;;;;;5093501;28;20084;-81
2023/01/13 01:08:57;;;;;;;34.72;7.68;;;8.00;99.90;;;;;;5111255;28;20131;-81
2023/01/13 01:11:43;;;;;;;35.47;6.30;;;8.00;99.90;;;;;;5110585;28;20047;-82
2023/01/13 01:14:30;;;;;;;41.13;8.13;;;7.90;99.90;;;;;;5093196;28;20051;-82
2023/01/13 01:17:16;;;;;;;43.92;8.25;;;7.90;99.90;;;;;;5093087;28;20063;-82
2023/01/13 01:20:03;;;;;;;57.05;10.20;;;7.80;99.90;;;;;;5110192;28;20052;-80
2023/01/13 01:22:49;;;;;;;38.55;6.50;;;7.80;99.90;;;;;;5097819;27;20056;-82
2023/01/13 01:25:36;;;;;;;41.47;7.03;;;7.80;99.90;;;;;;5111660;28;20163;-77
2023/01/13 01:28:22;;;;;;;33.28;8.05;;;7.80;99.90;;;;;;5116946;28;20051;-80
2023/01/13 01:31:23;;;;;;;33.17;6.57;;;7.80;99.90;;;;;;5096271;28;20052;-81
2023/01/13 01:34:10;;;;;;;34.92;7.20;;;7.80;99.90;;;;;;5093163;28;20105;-82
2023/01/13 01:36:56;;;;;;;34.65;5.50;;;7.80;99.90;;;;;;5111262;28;20083;-80
2023/01/13 01:39:42;;;;;;;49.15;7.40;;;7.80;99.90;;;;;;5095292;28;20101;-79
2023/01/13 01:45:33;;;;;;;39.55;8.13;;;7.60;99.90;;;;;;5111644;28;20522;-80
2023/01/13 01:48:19;;;;;;;35.33;6.95;;;7.70;99.90;;;;;;5112289;28;20043;-81
2023/01/13 01:51:12;;;;;;;44.90;6.72;;;7.70;99.90;;;;;;5109455;28;20491;-85
2023/01/13 01:54:00;;;;;;;35.17;7.47;;;7.70;99.90;;;;;;5114388;28;20058;-79
2023/01/13 01:56:47;;;;;;;40.28;7.20;;;7.80;99.90;;;;;;5099318;28;20165;-80
2023/01/13 01:59:35;;;;;;;57.38;9.27;;;7.70;99.90;;;;;;5109801;28;20415;-83
2023/01/13 02:02:21;;;;;;;37.55;6.15;;;7.80;99.90;;;;;;5110275;28;20051;-79
2023/01/13 02:05:08;;;;;;;35.25;7.53;;;7.70;99.90;;;;;;5109894;28;20392;-81
2023/01/13 02:07:57;;;;;;;37.97;7.13;;;7.80;99.90;;;;;;5091818;28;20051;-81
2023/01/13 02:10:48;;;;;;;34.88;6.07;;;7.80;99.90;;;;;;5109983;28;20087;-86
2023/01/13 02:13:35;;;;;;;42.22;5.65;;;7.80;99.90;;;;;;5109784;28;20122;-81
2023/01/13 02:16:23;;;;;;;40.47;7.63;;;7.70;99.90;;;;;;5110861;28;20043;-86
2023/01/13 02:19:21;;;;;;;43.13;7.18;;;7.70;99.90;;;;;;5111103;28;20074;-86
2023/01/13 02:22:36;;;;;;;38.50;8.68;;;7.70;99.90;;;;;;5095634;28;20043;-80
2023/01/13 02:25:28;;;;;;;35.13;7.38;;;7.60;99.90;;;;;;5092297;28;20407;-81
2023/01/13 02:32:04;;;;;;;35.50;6.85;;;7.60;99.90;;;;;;5108803;28;20118;-82
2023/01/13 02:35:12;;;;;;;31.48;6.57;;;7.60;99.90;;;;;;5109299;28;20056;-80
2023/01/13 02:38:00;;;;;;;51.70;7.30;;;7.60;99.90;;;;;;5091723;28;20066;-82
2023/01/13 02:44:57;;;;;;;36.70;7.25;;;7.60;99.90;;;;;;5115389;28;20536;-79
2023/01/13 02:47:46;;;;;;;40.45;6.68;;;7.60;99.90;;;;;;5091390;28;20142;-82
2023/01/13 02:50:43;;;;;;;39.33;6.72;;;7.60;99.90;;;;;;5110280;28;20456;-78
2023/01/13 02:54:02;;;;;;;39.95;6.95;;;7.60;99.90;;;;;;5091297;28;20039;-80
2023/01/13 02:56:52;;;;;;;38.97;7.55;;;7.60;99.90;;;;;;5086564;28;20048;-81
2023/01/13 02:59:39;;;;;;;47.42;9.40;;;7.60;99.90;;;;;;5110446;28;20043;-81
2023/01/13 03:02:26;;;;;;;41.42;7.70;;;7.60;99.90;;;;;;5114202;28;20525;-79
2023/01/13 03:05:14;;;;;;;43.20;6.68;;;7.60;99.90;;;;;;5118930;28;20051;-79
2023/01/13 03:08:31;;;;;;;37.63;8.85;;;7.70;99.90;;;;;;5113361;28;20051;-81
2023/01/13 03:11:19;;;;;;;33.30;6.43;;;7.70;99.90;;;;;;5095259;28;20098;-83
2023/01/13 03:14:29;;;;;;;37.33;7.65;;;7.70;99.90;;;;;;5114770;28;20479;-82
2023/01/13 03:17:24;;;;;;;39.50;7.75;;;7.70;99.90;;;;;;5113488;28;20101;-82
2023/01/13 03:20:29;;;;;;;40.70;7.82;;;7.70;99.90;;;;;;5094262;28;20122;-79
2023/01/13 03:23:25;;;;;;;43.97;8.48;;;7.80;99.90;;;;;;5095553;28;20570;-83
2023/01/13 03:26:39;;;;;;;43.38;9.35;;;7.90;99.90;;;;;;5112885;28;20205;-84
2023/01/13 03:29:45;;;;;;;45.97;10.57;;;7.90;99.90;;;;;;5118198;28;20522;-85
2023/01/13 03:32:34;;;;;;;58.92;9.43;;;7.90;99.90;;;;;;5118997;28;20055;-85
2023/01/13 03:35:40;;;;;;;37.40;8.40;;;8.00;99.90;;;;;;5113834;28;20048;-80
2023/01/13 03:38:43;;;;;;;30.42;7.47;;;8.00;99.90;;;;;;5112971;28;20052;-83
2023/01/13 03:41:43;;;;;;;43.55;7.07;;;8.10;99.90;;;;;;5112907;28;20047;-79
2023/01/13 03:44:37;;;;;;;40.25;8.02;;;8.10;99.90;;;;;;5094470;28;20043;-86
2023/01/13 03:47:27;;;;;;;42.70;9.48;;;8.10;99.90;;;;;;5095744;28;20403;-83
2023/01/13 03:50:21;;;;;;;26.88;5.75;;;8.10;99.90;;;;;;5112680;28;20047;-86
2023/01/13 03:53:16;;;;;;;29.33;6.35;;;8.10;99.90;;;;;;5094346;28;20078;-84
2023/01/13 03:56:09;;;;;;;27.45;5.45;;;8.00;99.90;;;;;;5102029;28;20048;-86
2023/01/13 03:58:58;;;;;;;31.60;5.32;;;8.00;99.90;;;;;;5113904;28;20051;-79
2023/01/13 04:02:01;;;;;;;25.65;4.85;;;8.00;99.90;;;;;;5112982;28;20062;-87
2023/01/13 04:05:01;;;;;;;31.33;6.38;;;8.00;99.90;;;;;;5096683;28;20045;-82
2023/01/13 04:08:00;;;;;;;29.67;5.57;;;8.00;99.90;;;;;;5092961;28;20054;-79
2023/01/13 04:11:01;;;;;;;30.33;6.03;;;7.90;99.90;;;;;;5112055;28;20056;-81
2023/01/13 04:13:49;;;;;;;25.67;5.90;;;8.00;99.90;;;;;;5092676;28;20046;-83
2023/01/13 04:16:36;;;;;;;30.42;5.30;;;8.00;99.90;;;;;;5114149;28;20040;-86
2023/01/13 04:19:22;;;;;;;32.05;5.95;;;8.00;99.90;;;;;;5091206;28;20427;-86
2023/01/13 04:22:09;;;;;;;32.88;6.40;;;8.10;99.90;;;;;;5112585;28;20048;-80
2023/01/13 04:24:55;;;;;;;28.42;6.68;;;8.10;99.90;;;;;;5093750;28;20047;-82
2023/01/13 04:27:41;;;;;;;33.78;6.22;;;8.00;99.90;;;;;;5094495;28;20112;-87
2023/01/13 04:30:27;;;;;;;33.13;7.15;;;8.00;99.90;;;;;;5119023;28;20095;-80
2023/01/13 04:33:15;;;;;;;35.72;6.50;;;8.00;99.90;;;;;;5103848;28;20043;-80
2023/01/13 04:36:01;;;;;;;31.23;5.90;;;7.90;99.90;;;;;;5117817;28;20548;-82
2023/01/13 04:38:49;;;;;;;33.22;5.90;;;7.90;99.90;;;;;;5126677;28;20048;-80
2023/01/13 04:44:40;;;;;;;31.92;6.70;;;8.00;99.90;;;;;;5095848;28;20056;-82
2023/01/13 04:47:29;;;;;;;37.15;7.07;;;8.00;99.90;;;;;;5113567;28;20044;-84
2023/01/13 04:50:18;;;;;;;24.85;5.13;;;8.00;99.90;;;;;;5093671;28;20480;-81
2023/01/13 04:53:05;;;;;;;34.83;7.13;;;8.10;99.90;;;;;;5111420;28;20404;-81
2023/01/13 04:55:51;;;;;;;34.53;6.88;;;8.10;99.90;;;;;;5113745;28;20075;-82
2023/01/13 04:58:38;;;;;;;36.05;7.20;;;8.10;99.90;;;;;;5119297;28;20460;-79
2023/01/13 05:01:24;;;;;;;30.52;6.03;;;8.10;99.90;;;;;;5102750;28;20059;-80
2023/01/13 05:04:10;;;;;;;41.45;8.88;;;8.20;99.90;;;;;;5115506;28;20535;-81
2023/01/13 05:06:57;;;;;;;29.10;6.15;;;8.20;99.90;;;;;;5093003;28;20051;-79
2023/01/13 05:09:43;;;;;;;30.65;7.13;;;8.20;99.90;;;;;;5095906;28;20138;-80
2023/01/13 05:18:39;;;;;;;32.17;5.00;;;8.20;99.90;;;;;;5091739;28;20104;-79
2023/01/13 05:27:35;;;;;;;23.52;4.70;;;8.20;99.90;;;;;;5091914;28;20047;-79
2023/01/13 05:30:24;;;;;;;25.98;6.07;;;8.30;99.90;;;;;;5091714;28;20574;-79
2023/01/13 05:33:11;;;;;;;25.85;4.30;;;8.30;99.90;;;;;;5110657;28;20040;-81
2023/01/13 05:36:02;;;;;;;32.42;5.80;;;8.30;99.90;;;;;;5092099;28;20051;-81
2023/01/13 05:38:50;;;;;;;20.52;4.88;;;8.30;99.90;;;;;;5110481;28;20058;-80
2023/01/13 05:44:43;;;;;;;30.77;6.55;;;8.30;99.90;;;;;;5091382;28;20059;-80
2023/01/13 05:47:30;;;;;;;27.92;5.53;;;8.30;99.90;;;;;;5117155;28;20104;-84
2023/01/13 05:50:17;;;;;;;26.05;5.47;;;8.20;99.90;;;;;;5094679;28;20120;-80
2023/01/13 05:53:03;;;;;;;36.00;7.10;;;8.10;99.90;;;;;;5110328;28;20570;-81
2023/01/13 05:55:50;;;;;;;30.83;6.82;;;8.10;99.90;;;;;;5110235;28;20047;-86
2023/01/13 05:58:37;;;;;;;27.42;4.88;;;8.00;99.90;;;;;;5095198;28;20108;-83
2023/01/13 06:01:23;;;;;;;37.88;5.72;;;7.90;99.90;;;;;;5078644;28;20039;-82
2023/01/13 06:04:09;;;;;;;32.78;5.28;;;7.80;99.90;;;;;;5097634;28;20135;-81
2023/01/13 06:06:55;;;;;;;28.15;5.88;;;7.70;99.90;;;;;;5109887;28;20086;-85
2023/01/13 06:09:41;;;;;;;29.80;5.60;;;7.80;99.90;;;;;;5098934;28;20130;-82
2023/01/13 06:12:28;;;;;;;33.08;6.47;;;7.70;99.90;;;;;;5110692;28;20049;-83
2023/01/13 06:15:14;;;;;;;25.92;4.93;;;7.70;99.90;;;;;;5109602;28;20071;-80
2023/01/13 06:18:04;;;;;;;29.27;5.45;;;7.50;99.90;;;;;;5110144;28;20088;-84
2023/01/13 06:20:50;;;;;;;27.30;6.28;;;7.50;99.90;;;;;;5111479;28;20039;-82
2023/01/13 06:23:37;;;;;;;39.83;6.60;;;7.50;99.90;;;;;;5109876;28;20568;-80
2023/01/13 06:26:26;;;;;;;29.70;5.30;;;7.40;99.90;;;;;;5078895;28;20571;-88
2023/01/13 06:29:15;;;;;;;32.83;7.32;;;7.30;99.90;;;;;;5093243;28;20095;-80
2023/01/13 06:32:11;;;;;;;27.08;5.63;;;7.30;99.90;;;;;;5079043;28;20036;-79
2023/01/13 06:35:04;;;;;;;28.00;7.40;;;7.30;99.90;;;;;;5097742;28;20062;-81
2023/01/13 06:37:54;;;;;;;28.60;5.25;;;7.30;99.90;;;;;;5110695;28;20052;-86
2023/01/13 06:40:41;;;;;;;20.98;4.40;;;7.40;99.90;;;;;;5093378;28;20817;-86
2023/01/13 06:43:28;;;;;;;30.27;5.20;;;7.40;99.90;;;;;;5077806;28;20051;-81
2023/01/13 06:46:14;;;;;;;33.90;6.32;;;7.50;99.90;;;;;;5108449;28;20058;-82
2023/01/13 06:49:00;;;;;;;19.95;5.13;;;7.50;99.90;;;;;;5094841;28;20047;-79
2023/01/13 06:51:46;;;;;;;35.17;5.18;;;7.50;99.90;;;;;;5092392;28;20067;-80
2023/01/13 06:54:33;;;;;;;25.55;5.50;;;7.40;99.90;;;;;;5095434;28;20666;-79
2023/01/13 06:57:19;;;;;;;30.30;5.90;;;7.40;99.90;;;;;;5112185;28;20059;-86
2023/01/13 07:00:06;;;;;;;35.63;6.28;;;7.40;99.90;;;;;;5119878;28;20044;-80
2023/01/13 07:02:53;;;;;;;27.65;5.13;;;7.30;99.90;;;;;;5094400;28;20040;-82
2023/01/13 07:05:41;;;;;;;30.90;5.82;;;7.30;99.90;;;;;;5110508;28;20055;-82
2023/01/13 07:08:27;;;;;;;33.58;5.35;;;7.30;99.90;;;;;;5110130;28;20118;-80
2023/01/13 07:11:13;;;;;;;33.47;6.18;;;7.30;99.90;;;;;;5090754;28;20067;-80
2023/01/13 07:17:05;;;;;;;31.40;4.43;;;7.30;99.90;;;;;;5113700;28;20094;-79
2023/01/13 07:19:52;;;;;;;37.40;5.93;;;7.30;99.90;;;;;;5109617;28;20579;-84
2023/01/13 07:22:38;;;;;;;27.30;4.97;;;7.30;99.90;;;;;;5092797;28;20056;-86
2023/01/13 07:25:24;;;;;;;31.40;5.85;;;7.30;99.90;;;;;;5109136;28;20051;-85
2023/01/13 07:28:10;;;;;;;32.10;4.68;;;7.30;99.90;;;;;;5110136;28;20531;-80
2023/01/13 07:30:57;;;;;;;28.80;5.38;;;7.30;99.90;;;;;;5113757;28;20134;-81
2023/01/13 07:33:43;;;;;;;27.85;5.63;;;7.30;99.90;;;;;;5109898;28;20134;-82
2023/01/13 07:36:31;;;;;;;26.05;6.00;;;7.40;99.90;;;;;;5089902;28;20044;-82
2023/01/13 07:39:17;;;;;;;28.48;4.65;;;7.50;99.90;;;;;;5109388;28;20040;-80
2023/01/13 07:45:09;;;;;;;29.77;5.45;;;7.60;99.90;;;;;;5107917;28;20185;-80
2023/01/13 07:47:55;;;;;;;30.98;5.63;;;7.70;99.90;;;;;;5109882;28;20050;-82
2023/01/13 07:50:41;;;;;;;24.88;5.43;;;7.70;99.90;;;;;;5098011;28;20134;-79
2023/01/13 07:53:27;;;;;;;33.47;5.82;;;7.80;99.90;;;;;;5116105;28;20039;-83
2023/01/13 07:56:13;;;;;;;27.95;5.13;;;7.90;99.90;;;;;;5098282;28;20051;-80
2023/01/13 07:59:00;;;;;;;21.05;5.07;;;7.90;99.90;;;;;;5094352;28;20126;-82
2023/01/13 08:01:46;;;;;;;27.15;4.90;;;7.90;99.90;;;;;;5095512;28;20529;-79
2023/01/13 08:04:33;;;;;;;29.98;5.68;;;7.90;99.90;;;;;;5093613;28;20048;-82
2023/01/13 08:07:19;;;;;;;25.88;4.45;;;8.00;99.90;;;;;;5112454;28;20055;-79
2023/01/13 08:10:06;;;;;;;26.40;5.40;;;8.00;99.90;;;;;;5112878;28;20059;-79
2023/01/13 08:16:02;;;;;;;30.63;6.20;;;8.10;99.90;;;;;;5100379;28;20047;-79
2023/01/13 08:18:49;;;;;;;24.80;6.00;;;8.10;99.90;;;;;;5093651;28;20474;-82
2023/01/13 08:21:35;;;;;;;27.90;5.68;;;8.10;99.90;;;;;;5094214;28;20100;-83
2023/01/13 08:24:21;;;;;;;31.80;6.78;;;8.10;99.90;;;;;;5112777;28;20051;-81
2023/01/13 08:27:07;;;;;;;23.80;5.20;;;8.20;99.90;;;;;;5096350;28;20100;-81
2023/01/13 08:29:54;;;;;;;29.48;6.00;;;8.20;99.90;;;;;;5094112;28;20518;-82
2023/01/13 08:32:43;;;;;;;28.00;6.88;;;8.20;99.90;;;;;;5093385;28;20040;-81
2023/01/13 08:35:29;;;;;;;25.50;4.88;;;8.00;99.90;;;;;;5094880;28;20086;-82
2023/01/13 08:38:16;;;;;;;24.67;5.35;;;7.80;99.90;;;;;;5094196;28;20051;-87
2023/01/13 08:41:10;;;;;;;26.77;5.82;;;7.80;99.90;;;;;;5118496;28;20035;-83
2023/01/13 08:43:56;;;;;;;32.35;5.65;;;7.70;99.90;;;;;;5111510;28;20058;-79
2023/01/13 08:46:42;;;;;;;37.40;7.70;;;7.60;99.90;;;;;;5111001;28;20050;-84
2023/01/13 08:49:29;;;;;;;30.80;6.22;;;7.40;99.90;;;;;;5111853;28;20051;-83
2023/01/13 08:52:15;;;;;;;41.88;5.97;;;7.20;99.90;;;;;;5111041;28;20043;-83
2023/01/13 08:55:02;;;;;;;31.83;5.80;;;7.10;99.90;;;;;;5093105;28;20047;-86
2023/01/13 08:57:48;;;;;;;25.98;5.40;;;7.00;99.90;;;;;;5093522;28;20151;-86
2023/01/13 09:00:34;;;;;;;35.35;6.15;;;7.00;99.90;;;;;;5097041;28;20092;-80
2023/01/13 09:03:21;;;;;;;38.08;6.85;;;7.00;99.90;;;;;;5098497;28;20056;-83
2023/01/13 09:06:07;;;;;;;36.05;5.53;;;7.00;99.90;;;;;;5111762;28;20047;-84
2023/01/13 09:08:53;;;;;;;24.50;5.47;;;7.10;99.90;;;;;;5091615;28;20054;-86
2023/01/13 09:14:50;;;;;;;43.40;6.90;;;7.20;99.90;;;;;;5109507;28;20040;-85
2023/01/13 09:17:37;;;;;;;32.95;6.90;;;7.20;99.90;;;;;;5093961;28;20107;-85
2023/01/13 09:20:23;;;;;;;25.42;4.70;;;7.20;99.90;;;;;;5110752;28;20083;-81
2023/01/13 09:23:09;;;;;;;37.60;6.32;;;7.30;99.90;;;;;;5094245;28;20043;-85
2023/01/13 09:25:55;;;;;;;35.90;6.72;;;7.30;99.90;;;;;;5097386;28;20051;-82
2023/01/13 09:28:41;;;;;;;48.70;7.75;;;7.20;99.90;;;;;;5096402;28;20081;-79
2023/01/13 09:31:28;;;;;;;38.13;7.30;;;7.30;99.90;;;;;;5092936;28;20104;-82
2023/01/13 09:37:21;;;;;;;37.17;7.60;;;7.30;99.90;;;;;;5109272;28;20096;-84
2023/01/13 09:40:17;;;;;;;32.25;5.43;;;7.30;99.90;;;;;;5110560;28;20051;-81
2023/01/13 09:43:52;;;;;;;34.88;6.22;;;7.30;99.90;;;;;;5110793;28;20044;-84
2023/01/13 09:50:40;;;;;;;34.72;6.03;;;7.30;99.90;;;;;;5109485;28;20575;-84
2023/01/13 09:53:33;;;;;;;42.10;7.07;;;7.20;99.90;;;;;;5092741;28;20051;-84
2023/01/13 09:56:19;;;;;;;34.60;6.95;;;7.20;99.90;;;;;;5111969;28;20142;-83
2023/01/13 09:59:10;;;;;;;35.97;5.97;;;7.20;99.90;;;;;;5111056;28;20083;-82
2023/01/13 10:02:22;;;;;;;33.53;6.25;;;7.20;99.90;;;;;;5092087;28;20102;-85
2023/01/13 10:05:31;;;;;;;37.28;6.25;;;7.20;99.90;;;;;;5092066;28;20479;-81
2023/01/13 10:08:22;;;;;;;41.03;6.32;;;7.30;99.90;;;;;;5110268;28;20122;-83
2023/01/13 10:14:31;;;;;;;28.27;6.10;;;7.40;99.90;;;;;;5110893;28;20130;-87
2023/01/13 10:17:43;;;;;;;47.22;8.05;;;7.50;99.90;;;;;;5113572;28;20048;-80
2023/01/13 10:20:42;;;;;;;36.60;6.63;;;7.50;99.90;;;;;;5116453;28;20046;-84
2023/01/13 10:23:48;;;;;;;26.55;4.45;;;7.50;99.90;;;;;;5110105;28;20089;-83
2023/01/13 10:26:37;;;;;;;36.00;6.10;;;7.60;99.90;;;;;;5109493;28;20468;-80
2023/01/13 10:29:26;;;;;;;26.08;4.78;;;7.70;99.90;;;;;;5109632;28;20077;-82
2023/01/13 10:32:12;;;;;;;22.17;5.40;;;7.70;99.90;;;;;;5109283;28;20118;-84
2023/01/13 10:34:59;;;;;;;36.40;5.35;;;7.70;99.90;;;;;;5109940;28;20506;-86
2023/01/13 10:37:56;;;;;;;26.98;5.07;;;7.60;99.90;;;;;;5096955;28;20048;-85
2023/01/13 10:41:04;;;;;;;30.08;4.90;;;7.70;99.90;;;;;;5091970;28;20537;-84
2023/01/13 10:44:03;;;;;;;28.52;5.55;;;7.70;99.90;;;;;;5109148;28;20384;-80
2023/01/13 10:46:57;;;;;;;24.73;6.20;;;7.70;99.90;;;;;;5114550;28;20143;-82
2023/01/13 10:50:01;;;;;;;27.83;5.47;;;7.70;99.90;;;;;;5092556;28;20046;-84
2023/01/13 10:53:15;;;;;;;24.77;5.13;;;7.80;99.90;;;;;;5109810;28;20491;-85
2023/01/13 10:56:03;;;;;;;22.98;5.13;;;7.70;99.90;;;;;;5109832;28;20122;-83
2023/01/13 10:58:49;;;;;;;18.27;4.20;;;7.80;99.90;;;;;;5091134;28;20503;-85
2023/01/13 11:01:36;;;;;;;25.08;4.78;;;7.90;99.90;;;;;;5097087;28;20046;-85
2023/01/13 11:04:39;;;;;;;24.38;4.18;;;7.90;99.90;;;;;;5110241;28;20048;-84
2023/01/13 11:07:31;;;;;;;17.95;3.78;;;7.90;99.90;;;;;;5109107;28;20044;-82
2023/01/13 11:10:23;;;;;;;17.88;4.00;;;8.00;99.90;;;;;;5108611;28;20091;-82
2023/01/13 11:14:45;;;;;;;26.52;5.18;;;8.10;99.90;;;;;;5102009;28;20189;-81
2023/01/13 11:17:08;;;;;;;18.50;4.10;;;8.00;99.90;;;;;;5105616;28;20043;-81
2023/01/13 11:20:03;;;;;;;22.67;4.15;;;8.00;99.90;;;;;;5094347;28;20403;-82
2023/01/13 11:22:54;;;;;;;29.35;5.57;;;8.10;99.90;;;;;;5114444;28;20051;-81
2023/01/13 11:25:45;;;;;;;28.33;5.60;;;8.10;99.90;;;;;;5112938;28;20051;-81
2023/01/13 11:28:58;;;;;;;21.20;5.20;;;8.10;99.90;;;;;;5112537;28;20047;-82
2023/01/13 11:31:50;;;;;;;20.30;4.07;;;8.10;99.90;;;;;;5114426;28;20083;-81
2023/01/13 11:34:40;;;;;;;23.10;4.93;;;8.00;99.90;;;;;;5113804;28;20066;-81
2023/01/13 11:37:40;;;;;;;24.35;3.88;;;7.80;99.90;;;;;;5103136;28;20051;-83
2023/01/13 11:40:40;;;;;;;14.95;3.75;;;7.80;99.90;;;;;;5113333;28;20807;-80
2023/01/13 11:43:35;;;;;;;22.45;3.42;;;7.80;99.90;;;;;;5112546;28;20051;-79
2023/01/13 11:46:25;;;;;;;25.08;4.03;;;7.90;99.90;;;;;;5094743;28;20739;-80
2023/01/13 11:49:32;;;;;;;17.90;3.08;;;7.90;99.90;;;;;;5113471;28;20083;-80
2023/01/13 11:52:41;;;;;;;25.15;4.55;;;8.00;99.90;;;;;;5114008;28;20052;-81
2023/01/13 11:55:52;;;;;;;27.63;5.78;;;7.60;99.90;;;;;;5113229;28;20055;-79
2023/01/13 11:59:15;;;;;;;19.55;5.07;;;7.60;99.90;;;;;;5113928;28;20057;-81
2023/01/13 12:02:20;;;;;;;25.65;3.63;;;7.80;99.90;;;;;;5112810;28;20048;-80
2023/01/13 12:05:09;;;;;;;24.73;4.27;;;7.80;99.90;;;;;;5079702;28;20044;-81
2023/01/13 12:08:38;;;;;;;23.48;4.78;;;7.70;99.90;;;;;;5114475;28;20286;-80
2023/01/13 12:11:30;;;;;;;19.55;4.03;;;7.70;99.90;;;;;;5060173;28;20048;-80
2023/01/13 12:14:42;;;;;;;20.88;5.20;;;7.80;99.90;;;;;;5090703;28;20032;-80
2023/01/13 12:18:15;;;;;;;21.88;4.40;;;7.90;99.90;;;;;;5073549;28;20059;-81
2023/01/13 12:21:07;;;;;;;19.02;4.60;;;7.90;99.90;;;;;;5091855;28;20040;-79
2023/01/13 12:24:16;;;;;;;18.30;3.80;;;7.90;99.90;;;;;;5091991;28;20412;-80
2023/01/13 12:27:38;;;;;;;19.77;4.10;;;8.00;99.90;;;;;;5073710;28;20054;-83
2023/01/13 12:30:28;;;;;;;22.60;4.25;;;8.10;99.90;;;;;;5087275;28;20102;-81
2023/01/13 12:33:22;;;;;;;27.45;4.85;;;8.10;99.90;;;;;;5076071;28;20155;-81
2023/01/13 12:36:28;;;;;;;25.87;4.07;;;8.10;99.90;;;;;;5073155;28;20052;-80
2023/01/13 12:39:44;;;;;;;23.10;4.25;;;8.10;99.90;;;;;;5073302;28;20310;-82
2023/01/13 12:46:22;;;;;;;29.00;4.85;;;8.70;99.90;;;;;;5100590;28;20048;-81
2023/01/13 12:49:30;;;;;;;23.40;3.85;;;8.60;99.90;;;;;;5101088;28;20090;-80
2023/01/13 12:52:18;;;;;;;19.63;3.72;;;8.40;99.90;;;;;;5093958;28;20115;-82
2023/01/13 12:55:11;;;;;;;17.60;4.05;;;8.20;99.90;;;;;;5091360;28;20055;-84
2023/01/13 12:58:09;;;;;;;25.98;3.97;;;8.20;99.90;;;;;;5091396;28;20135;-80
2023/01/13 13:01:11;;;;;;;19.73;3.90;;;8.30;99.90;;;;;;5093747;28;20132;-79
2023/01/13 13:04:10;;;;;;;23.00;3.67;;;8.30;99.90;;;;;;5080411;28;20481;-81
2023/01/13 13:07:07;;;;;;;17.38;4.43;;;8.40;99.90;;;;;;5091136;28;20400;-82
2023/01/13 13:10:01;;;;;;;39.95;5.85;;;8.50;99.90;;;;;;5092909;28;20048;-79
2023/01/13 13:16:24;;;;;;;30.25;6.50;;;8.20;99.90;;;;;;5098039;28;20071;-82
2023/01/13 13:19:20;;;;;;;28.55;5.15;;;8.30;99.90;;;;;;5091462;28;20052;-82
2023/01/13 13:22:12;;;;;;;19.95;4.22;;;8.50;99.90;;;;;;5090257;28;20143;-79
2023/01/13 13:25:01;;;;;;;18.67;4.13;;;8.50;99.90;;;;;;5075704;28;20048;-81
2023/01/13 13:28:03;;;;;;;21.88;3.53;;;8.60;99.90;;;;;;5091055;28;20495;-81
2023/01/13 13:31:04;;;;;;;18.88;3.88;;;8.50;99.90;;;;;;5093413;28;20094;-81
2023/01/13 13:34:19;;;;;;;23.20;4.20;;;8.50;99.90;;;;;;5075480;28;20048;-82
2023/01/13 13:37:24;;;;;;;20.48;4.00;;;8.30;99.90;;;;;;5071638;28;20051;-81
2023/01/13 13:46:47;;;;;;;26.37;4.80;;;8.20;99.90;;;;;;5089686;28;20068;-80
2023/01/13 13:49:44;;;;;;;23.15;3.88;;;8.20;99.90;;;;;;5086397;28;20630;-81
2023/01/13 13:52:38;;;;;;;28.48;5.25;;;8.30;99.90;;;;;;5083624;28;20426;-81
2023/01/13 13:55:27;;;;;;;16.90;3.70;;;8.30;99.90;;;;;;5091747;28;20048;-81
2023/01/13 13:58:16;;;;;;;33.47;6.32;;;8.10;99.90;;;;;;5071595;28;20056;-82
2023/01/13 14:01:04;;;;;;;16.35;3.83;;;8.00;99.90;;;;;;5090467;28;20052;-81
2023/01/13 14:04:02;;;;;;;19.48;4.13;;;7.80;99.90;;;;;;5090878;28;20048;-81
2023/01/13 14:06:57;;;;;;;32.55;6.75;;;7.80;99.90;;;;;;5090430;28;20139;-84
2023/01/13 14:09:46;;;;;;;20.17;3.92;;;8.00;99.90;;;;;;5089470;28;20048;-83
2023/01/13 14:12:37;;;;;;;20.30;3.50;;;8.20;99.90;;;;;;5089098;28;20484;-79
2023/01/13 14:15:35;;;;;;;23.15;3.58;;;8.30;99.90;;;;;;5070906;28;20114;-84
2023/01/13 14:18:21;;;;;;;24.77;5.65;;;8.20;99.90;;;;;;5095340;28;20087;-81
2023/01/13 14:21:21;;;;;;;17.60;3.60;;;8.20;99.90;;;;;;5091428;28;20040;-81
2023/01/13 14:24:14;;;;;;;20.55;3.33;;;8.20;99.90;;;;;;5090427;28;20052;-82
2023/01/13 14:27:28;;;;;;;11.77;3.60;;;8.10;99.90;;;;;;5089576;28;20504;-83
2023/01/13 14:30:17;;;;;;;17.15;3.13;;;8.20;99.90;;;;;;5089661;28;20415;-82
2023/01/13 14:33:04;;;;;;;19.63;3.10;;;8.10;99.90;;;;;;5089504;28;20576;-80
2023/01/13 14:36:17;;;;;;;15.30;3.22;;;8.10;99.90;;;;;;5091347;28;20507;-83
2023/01/13 14:39:04;;;;;;;18.90;3.85;;;7.90;99.90;;;;;;5088967;28;20102;-81
2023/01/13 14:41:51;;;;;;;18.05;4.00;;;7.90;99.90;;;;;;5089836;28;20047;-81
2023/01/13 14:44:46;;;;;;;17.95;3.72;;;7.80;99.90;;;;;;5095845;28;20058;-82
2023/01/13 14:47:32;;;;;;;13.45;2.50;;;7.80;99.90;;;;;;5046287;28;20054;-81
2023/01/13 14:50:27;;;;;;;16.77;3.95;;;7.80;99.90;;;;;;5072165;28;20626;-85
2023/01/13 14:53:37;;;;;;;14.60;3.30;;;7.80;99.90;;;;;;5088793;28;20040;-82
2023/01/13 14:56:36;;;;;;;39.22;5.20;;;7.70;99.90;;;;;;5075454;28;20059;-82
2023/01/13 14:59:39;;;;;;;15.52;2.63;;;7.60;99.90;;;;;;5093824;28;20048;-82
2023/01/13 15:02:31;;;;;;;15.13;3.10;;;7.60;99.90;;;;;;5093877;28;20163;-81
2023/01/13 15:05:23;;;;;;;15.55;3.05;;;7.60;99.90;;;;;;5093647;28;20112;-83
2023/01/13 15:08:10;;;;;;;14.93;2.67;;;7.50;99.90;;;;;;5093430;28;20044;-79
2023/01/13 15:11:01;;;;;;;17.65;3.92;;;7.20;99.90;;;;;;5096951;28;20054;-84
2023/01/13 15:13:58;;;;;;;24.23;3.38;;;7.30;99.90;;;;;;5119783;28;20047;-80
2023/01/13 15:16:44;;;;;;;21.92;5.40;;;7.30;99.90;;;;;;5111615;28;20487;-84
2023/01/13 15:19:30;;;;;;;22.30;3.53;;;7.30;99.90;;;;;;5113436;28;20050;-82
2023/01/13 15:22:16;;;;;;;18.10;4.25;;;7.30;99.90;;;;;;5098203;28;20122;-80
2023/01/13 15:25:03;;;;;;;23.83;5.40;;;7.40;99.90;;;;;;5099036;28;20162;-80
2023/01/13 15:27:51;;;;;;;29.83;4.90;;;7.50;99.90;;;;;;5112360;28;20055;-81
2023/01/13 15:30:37;;;;;;;25.58;4.28;;;7.50;99.90;;;;;;5111896;28;20071;-81
2023/01/13 15:33:23;;;;;;;19.98;5.05;;;7.60;99.90;;;;;;5094854;28;20098;-80
2023/01/13 15:36:30;;;;;;;18.88;2.83;;;7.60;99.90;;;;;;5095451;28;20052;-81
2023/01/13 15:39:16;;;;;;;15.18;2.35;;;7.50;99.90;;;;;;5104726;28;20058;-79
2023/01/13 15:48:19;;;;;;;10.95;1.83;;;7.40;99.90;;;;;;5111741;28;20087;-80
2023/01/13 15:51:05;;;;;;;18.33;2.17;;;7.40;99.90;;;;;;5112458;28;20495;-81
2023/01/13 15:53:51;;;;;;;15.07;3.05;;;7.40;99.90;;;;;;5093792;28;20161;-79
2023/01/13 15:56:38;;;;;;;29.23;3.97;;;7.50;99.90;;;;;;5096297;28;20047;-83
2023/01/13 15:59:26;;;;;;;25.85;4.15;;;7.50;99.90;;;;;;5094997;28;20084;-79
2023/01/13 16:02:17;;;;;;;21.98;3.67;;;7.50;99.90;;;;;;5112202;28;20077;-79
2023/01/13 16:05:04;;;;;;;23.35;4.82;;;7.50;99.90;;;;;;5120599;28;20085;-81
2023/01/13 16:07:50;;;;;;;21.90;3.67;;;7.50;99.90;;;;;;5094130;28;20052;-85
2023/01/13 16:10:36;;;;;;;32.55;5.07;;;7.50;99.90;;;;;;5094344;28;20126;-83